sensor_id;sensor_type;location;lat;lon;timestamp;P1;durP1;ratioP1;P2;durP2;ratioP2
55497;SDS011;41357;52.806;18.268;2023-05-23T00:02:17;10.65;;;7.20;;
55497;SDS011;41357;52.806;18.268;2023-05-23T00:04:44;11.43;;;7.38;;
55497;SDS011;41357;52.806;18.268;2023-05-23T00:07:10;13.48;;;7.47;;
55497;SDS011;41357;52.806;18.268;2023-05-23T00:09:36;11.88;;;7.35;;
55497;SDS011;41357;52.806;18.268;2023-05-23T00:12:02;14.93;;;7.70;;
55497;SDS011;41357;52.806;18.268;2023-05-23T00:14:28;13.20;;;7.50;;
55497;SDS011;41357;52.806;18.268;2023-05-23T00:16:59;14.48;;;7.32;;
55497;SDS011;41357;52.806;18.268;2023-05-23T00:19:25;11.65;;;7.22;;
55497;SDS011;41357;52.806;18.268;2023-05-23T00:21:51;12.82;;;7.38;;
55497;SDS011;41357;52.806;18.268;2023-05-23T00:24:20;12.40;;;7.57;;
55497;SDS011;41357;52.806;18.268;2023-05-23T00:26:46;13.73;;;7.82;;
55497;SDS011;41357;52.806;18.268;2023-05-23T00:29:13;15.95;;;8.70;;
55497;SDS011;41357;52.806;18.268;2023-05-23T00:31:43;17.83;;;9.60;;
55497;SDS011;41357;52.806;18.268;2023-05-23T00:34:13;15.60;;;9.45;;
55497;SDS011;41357;52.806;18.268;2023-05-23T00:36:39;14.77;;;10.00;;
55497;SDS011;41357;52.806;18.268;2023-05-23T00:39:08;16.02;;;8.23;;
55497;SDS011;41357;52.806;18.268;2023-05-23T00:41:42;18.17;;;9.38;;
55497;SDS011;41357;52.806;18.268;2023-05-23T00:44:09;25.73;;;9.70;;
55497;SDS011;41357;52.806;18.268;2023-05-23T00:46:35;17.30;;;8.52;;
55497;SDS011;41357;52.806;18.268;2023-05-23T00:49:01;14.32;;;9.00;;
55497;SDS011;41357;52.806;18.268;2023-05-23T00:51:27;15.05;;;8.85;;
55497;SDS011;41357;52.806;18.268;2023-05-23T00:53:53;15.15;;;8.63;;
55497;SDS011;41357;52.806;18.268;2023-05-23T00:56:20;16.20;;;8.48;;
55497;SDS011;41357;52.806;18.268;2023-05-23T00:58:46;11.80;;;7.80;;
55497;SDS011;41357;52.806;18.268;2023-05-23T01:01:12;17.55;;;8.50;;
55497;SDS011;41357;52.806;18.268;2023-05-23T01:03:40;12.45;;;7.50;;
55497;SDS011;41357;52.806;18.268;2023-05-23T01:06:09;15.73;;;9.02;;
55497;SDS011;41357;52.806;18.268;2023-05-23T01:08:35;13.98;;;7.93;;
55497;SDS011;41357;52.806;18.268;2023-05-23T01:11:03;15.40;;;8.40;;
55497;SDS011;41357;52.806;18.268;2023-05-23T01:16:00;12.38;;;7.70;;
55497;SDS011;41357;52.806;18.268;2023-05-23T01:18:36;12.20;;;7.88;;
55497;SDS011;41357;52.806;18.268;2023-05-23T01:21:06;16.30;;;8.60;;
55497;SDS011;41357;52.806;18.268;2023-05-23T01:26:40;16.45;;;8.30;;
55497;SDS011;41357;52.806;18.268;2023-05-23T01:29:19;13.35;;;8.00;;
55497;SDS011;41357;52.806;18.268;2023-05-23T01:31:47;11.40;;;7.90;;
55497;SDS011;41357;52.806;18.268;2023-05-23T01:34:14;15.05;;;7.97;;
55497;SDS011;41357;52.806;18.268;2023-05-23T01:36:42;15.48;;;8.32;;
55497;SDS011;41357;52.806;18.268;2023-05-23T01:39:09;16.13;;;8.30;;
55497;SDS011;41357;52.806;18.268;2023-05-23T01:41:36;14.13;;;7.97;;
55497;SDS011;41357;52.806;18.268;2023-05-23T01:44:02;16.92;;;8.45;;
55497;SDS011;41357;52.806;18.268;2023-05-23T01:46:29;13.50;;;6.95;;
55497;SDS011;41357;52.806;18.268;2023-05-23T01:48:56;14.02;;;8.32;;
55497;SDS011;41357;52.806;18.268;2023-05-23T01:51:23;10.98;;;7.60;;
55497;SDS011;41357;52.806;18.268;2023-05-23T01:53:51;15.43;;;8.30;;
55497;SDS011;41357;52.806;18.268;2023-05-23T01:56:18;13.77;;;7.72;;
55497;SDS011;41357;52.806;18.268;2023-05-23T01:58:45;10.35;;;7.72;;
55497;SDS011;41357;52.806;18.268;2023-05-23T02:01:11;11.55;;;7.32;;
55497;SDS011;41357;52.806;18.268;2023-05-23T02:03:38;13.75;;;7.82;;
55497;SDS011;41357;52.806;18.268;2023-05-23T02:06:04;11.98;;;7.45;;
55497;SDS011;41357;52.806;18.268;2023-05-23T02:08:30;13.85;;;7.65;;
55497;SDS011;41357;52.806;18.268;2023-05-23T02:10:56;11.77;;;7.57;;
55497;SDS011;41357;52.806;18.268;2023-05-23T02:13:22;15.93;;;8.68;;
55497;SDS011;41357;52.806;18.268;2023-05-23T02:15:48;14.02;;;7.72;;
55497;SDS011;41357;52.806;18.268;2023-05-23T02:18:14;13.00;;;8.00;;
55497;SDS011;41357;52.806;18.268;2023-05-23T02:20:40;13.82;;;8.00;;
55497;SDS011;41357;52.806;18.268;2023-05-23T02:23:06;11.93;;;7.78;;
55497;SDS011;41357;52.806;18.268;2023-05-23T02:25:32;13.27;;;8.65;;
55497;SDS011;41357;52.806;18.268;2023-05-23T02:27:58;14.52;;;7.57;;
55497;SDS011;41357;52.806;18.268;2023-05-23T02:30:24;12.98;;;8.18;;
55497;SDS011;41357;52.806;18.268;2023-05-23T02:32:50;15.07;;;8.88;;
55497;SDS011;41357;52.806;18.268;2023-05-23T02:35:17;17.55;;;9.23;;
55497;SDS011;41357;52.806;18.268;2023-05-23T02:37:43;11.75;;;7.20;;
55497;SDS011;41357;52.806;18.268;2023-05-23T02:40:09;14.23;;;8.07;;
55497;SDS011;41357;52.806;18.268;2023-05-23T02:42:36;15.35;;;8.93;;
55497;SDS011;41357;52.806;18.268;2023-05-23T02:45:02;14.80;;;8.00;;
55497;SDS011;41357;52.806;18.268;2023-05-23T02:47:28;12.93;;;8.02;;
55497;SDS011;41357;52.806;18.268;2023-05-23T02:49:54;17.55;;;8.80;;
55497;SDS011;41357;52.806;18.268;2023-05-23T02:52:20;15.35;;;9.45;;
55497;SDS011;41357;52.806;18.268;2023-05-23T02:54:46;14.40;;;8.38;;
55497;SDS011;41357;52.806;18.268;2023-05-23T02:57:12;16.55;;;8.75;;
55497;SDS011;41357;52.806;18.268;2023-05-23T02:59:38;16.92;;;8.52;;
55497;SDS011;41357;52.806;18.268;2023-05-23T03:02:05;13.85;;;8.32;;
55497;SDS011;41357;52.806;18.268;2023-05-23T03:04:31;17.98;;;8.88;;
55497;SDS011;41357;52.806;18.268;2023-05-23T03:06:57;13.55;;;8.68;;
55497;SDS011;41357;52.806;18.268;2023-05-23T03:09:23;15.43;;;8.77;;
55497;SDS011;41357;52.806;18.268;2023-05-23T03:11:50;16.23;;;9.07;;
55497;SDS011;41357;52.806;18.268;2023-05-23T03:14:16;19.42;;;9.60;;
55497;SDS011;41357;52.806;18.268;2023-05-23T03:16:42;13.73;;;8.88;;
55497;SDS011;41357;52.806;18.268;2023-05-23T03:19:09;19.77;;;8.48;;
55497;SDS011;41357;52.806;18.268;2023-05-23T03:21:35;14.55;;;8.07;;
55497;SDS011;41357;52.806;18.268;2023-05-23T03:24:01;16.67;;;9.85;;
55497;SDS011;41357;52.806;18.268;2023-05-23T03:26:27;13.27;;;9.20;;
55497;SDS011;41357;52.806;18.268;2023-05-23T03:28:53;14.80;;;8.90;;
55497;SDS011;41357;52.806;18.268;2023-05-23T03:31:20;18.42;;;8.82;;
55497;SDS011;41357;52.806;18.268;2023-05-23T03:33:46;16.17;;;7.88;;
55497;SDS011;41357;52.806;18.268;2023-05-23T03:36:12;13.55;;;8.18;;
55497;SDS011;41357;52.806;18.268;2023-05-23T03:38:38;14.43;;;9.20;;
55497;SDS011;41357;52.806;18.268;2023-05-23T03:41:04;14.90;;;9.00;;
55497;SDS011;41357;52.806;18.268;2023-05-23T03:43:30;13.35;;;8.55;;
55497;SDS011;41357;52.806;18.268;2023-05-23T03:45:57;13.23;;;7.72;;
55497;SDS011;41357;52.806;18.268;2023-05-23T03:48:23;14.50;;;8.30;;
55497;SDS011;41357;52.806;18.268;2023-05-23T03:50:49;15.52;;;8.13;;
55497;SDS011;41357;52.806;18.268;2023-05-23T03:53:15;16.88;;;7.82;;
55497;SDS011;41357;52.806;18.268;2023-05-23T03:55:41;14.80;;;7.60;;
55497;SDS011;41357;52.806;18.268;2023-05-23T03:58:07;16.35;;;7.93;;
55497;SDS011;41357;52.806;18.268;2023-05-23T04:00:33;10.57;;;7.63;;
55497;SDS011;41357;52.806;18.268;2023-05-23T04:03:00;11.10;;;7.93;;
55497;SDS011;41357;52.806;18.268;2023-05-23T04:05:26;15.32;;;7.78;;
55497;SDS011;41357;52.806;18.268;2023-05-23T04:07:52;10.27;;;7.47;;
55497;SDS011;41357;52.806;18.268;2023-05-23T04:10:18;13.60;;;8.15;;
55497;SDS011;41357;52.806;18.268;2023-05-23T04:12:44;13.20;;;7.68;;
55497;SDS011;41357;52.806;18.268;2023-05-23T04:15:11;12.18;;;8.10;;
55497;SDS011;41357;52.806;18.268;2023-05-23T04:17:38;10.52;;;7.63;;
55497;SDS011;41357;52.806;18.268;2023-05-23T04:20:07;15.68;;;7.78;;
55497;SDS011;41357;52.806;18.268;2023-05-23T04:22:36;14.18;;;7.85;;
55497;SDS011;41357;52.806;18.268;2023-05-23T04:25:03;13.05;;;8.15;;
55497;SDS011;41357;52.806;18.268;2023-05-23T04:27:30;12.02;;;6.90;;
55497;SDS011;41357;52.806;18.268;2023-05-23T04:29:56;12.45;;;7.25;;
55497;SDS011;41357;52.806;18.268;2023-05-23T04:32:24;12.73;;;7.22;;
55497;SDS011;41357;52.806;18.268;2023-05-23T04:34:51;11.15;;;8.10;;
55497;SDS011;41357;52.806;18.268;2023-05-23T04:37:20;11.10;;;7.30;;
55497;SDS011;41357;52.806;18.268;2023-05-23T04:39:50;12.02;;;6.97;;
55497;SDS011;41357;52.806;18.268;2023-05-23T04:42:17;11.18;;;7.57;;
55497;SDS011;41357;52.806;18.268;2023-05-23T04:44:49;11.00;;;7.07;;
55497;SDS011;41357;52.806;18.268;2023-05-23T04:47:15;13.48;;;8.07;;
55497;SDS011;41357;52.806;18.268;2023-05-23T04:49:42;10.68;;;7.22;;
55497;SDS011;41357;52.806;18.268;2023-05-23T04:52:08;18.55;;;7.30;;
55497;SDS011;41357;52.806;18.268;2023-05-23T04:54:34;13.23;;;6.47;;
55497;SDS011;41357;52.806;18.268;2023-05-23T04:57:01;10.50;;;6.55;;
55497;SDS011;41357;52.806;18.268;2023-05-23T04:59:27;11.45;;;6.68;;
55497;SDS011;41357;52.806;18.268;2023-05-23T05:01:53;10.02;;;6.82;;
55497;SDS011;41357;52.806;18.268;2023-05-23T05:04:20;11.13;;;6.97;;
55497;SDS011;41357;52.806;18.268;2023-05-23T05:06:47;9.40;;;6.53;;
55497;SDS011;41357;52.806;18.268;2023-05-23T05:09:13;14.82;;;7.55;;
55497;SDS011;41357;52.806;18.268;2023-05-23T05:11:39;13.70;;;7.13;;
55497;SDS011;41357;52.806;18.268;2023-05-23T05:14:05;14.30;;;6.65;;
55497;SDS011;41357;52.806;18.268;2023-05-23T05:16:31;12.60;;;6.30;;
55497;SDS011;41357;52.806;18.268;2023-05-23T05:18:57;11.05;;;6.88;;
55497;SDS011;41357;52.806;18.268;2023-05-23T05:21:23;10.27;;;6.00;;
55497;SDS011;41357;52.806;18.268;2023-05-23T05:23:49;9.68;;;6.32;;
55497;SDS011;41357;52.806;18.268;2023-05-23T05:26:16;12.30;;;5.57;;
55497;SDS011;41357;52.806;18.268;2023-05-23T05:28:42;15.13;;;6.45;;
55497;SDS011;41357;52.806;18.268;2023-05-23T05:31:08;8.57;;;5.43;;
55497;SDS011;41357;52.806;18.268;2023-05-23T05:33:39;12.32;;;5.85;;
55497;SDS011;41357;52.806;18.268;2023-05-23T05:36:05;7.13;;;4.95;;
55497;SDS011;41357;52.806;18.268;2023-05-23T05:38:32;10.10;;;5.65;;
55497;SDS011;41357;52.806;18.268;2023-05-23T05:40:58;11.38;;;5.53;;
55497;SDS011;41357;52.806;18.268;2023-05-23T05:43:27;10.20;;;5.28;;
55497;SDS011;41357;52.806;18.268;2023-05-23T05:45:53;7.60;;;4.90;;
55497;SDS011;41357;52.806;18.268;2023-05-23T05:48:19;7.78;;;5.32;;
55497;SDS011;41357;52.806;18.268;2023-05-23T05:50:45;8.57;;;5.20;;
55497;SDS011;41357;52.806;18.268;2023-05-23T05:53:12;8.48;;;5.50;;
55497;SDS011;41357;52.806;18.268;2023-05-23T05:55:38;7.57;;;4.90;;
55497;SDS011;41357;52.806;18.268;2023-05-23T05:58:04;11.52;;;5.20;;
55497;SDS011;41357;52.806;18.268;2023-05-23T06:00:31;7.50;;;4.68;;
55497;SDS011;41357;52.806;18.268;2023-05-23T06:02:57;8.25;;;5.10;;
55497;SDS011;41357;52.806;18.268;2023-05-23T06:05:23;17.83;;;5.45;;
55497;SDS011;41357;52.806;18.268;2023-05-23T06:07:50;13.02;;;6.03;;
55497;SDS011;41357;52.806;18.268;2023-05-23T06:10:17;7.93;;;4.68;;
55497;SDS011;41357;52.806;18.268;2023-05-23T06:12:43;7.25;;;3.85;;
55497;SDS011;41357;52.806;18.268;2023-05-23T06:15:10;8.63;;;4.20;;
55497;SDS011;41357;52.806;18.268;2023-05-23T06:17:38;6.88;;;3.80;;
55497;SDS011;41357;52.806;18.268;2023-05-23T06:20:04;11.63;;;4.30;;
55497;SDS011;41357;52.806;18.268;2023-05-23T06:22:32;5.50;;;3.88;;
55497;SDS011;41357;52.806;18.268;2023-05-23T06:24:58;9.73;;;4.10;;
55497;SDS011;41357;52.806;18.268;2023-05-23T06:27:24;5.80;;;3.60;;
55497;SDS011;41357;52.806;18.268;2023-05-23T06:29:50;9.55;;;4.78;;
55497;SDS011;41357;52.806;18.268;2023-05-23T06:32:17;7.88;;;3.53;;
55497;SDS011;41357;52.806;18.268;2023-05-23T06:34:43;6.75;;;3.53;;
55497;SDS011;41357;52.806;18.268;2023-05-23T06:37:09;4.78;;;3.55;;
55497;SDS011;41357;52.806;18.268;2023-05-23T06:39:35;9.30;;;3.13;;
55497;SDS011;41357;52.806;18.268;2023-05-23T06:42:01;5.80;;;2.97;;
55497;SDS011;41357;52.806;18.268;2023-05-23T06:44:28;7.22;;;3.00;;
55497;SDS011;41357;52.806;18.268;2023-05-23T06:46:54;5.95;;;2.83;;
55497;SDS011;41357;52.806;18.268;2023-05-23T06:49:21;4.13;;;2.95;;
55497;SDS011;41357;52.806;18.268;2023-05-23T06:51:48;8.95;;;4.60;;
55497;SDS011;41357;52.806;18.268;2023-05-23T06:54:14;7.88;;;3.15;;
55497;SDS011;41357;52.806;18.268;2023-05-23T06:56:40;5.18;;;3.10;;
55497;SDS011;41357;52.806;18.268;2023-05-23T06:59:06;6.55;;;3.30;;
55497;SDS011;41357;52.806;18.268;2023-05-23T07:01:32;7.57;;;3.45;;
55497;SDS011;41357;52.806;18.268;2023-05-23T07:03:58;8.23;;;3.90;;
55497;SDS011;41357;52.806;18.268;2023-05-23T07:06:24;4.43;;;3.13;;
55497;SDS011;41357;52.806;18.268;2023-05-23T07:08:53;5.15;;;3.00;;
55497;SDS011;41357;52.806;18.268;2023-05-23T07:11:20;5.47;;;2.60;;
55497;SDS011;41357;52.806;18.268;2023-05-23T07:13:46;6.63;;;2.95;;
55497;SDS011;41357;52.806;18.268;2023-05-23T07:16:12;14.13;;;3.63;;
55497;SDS011;41357;52.806;18.268;2023-05-23T07:18:39;5.07;;;2.58;;
55497;SDS011;41357;52.806;18.268;2023-05-23T07:21:05;4.60;;;2.65;;
55497;SDS011;41357;52.806;18.268;2023-05-23T07:23:31;5.75;;;2.92;;
55497;SDS011;41357;52.806;18.268;2023-05-23T07:25:58;3.80;;;2.10;;
55497;SDS011;41357;52.806;18.268;2023-05-23T07:28:24;8.02;;;2.50;;
55497;SDS011;41357;52.806;18.268;2023-05-23T07:30:51;4.72;;;2.47;;
55497;SDS011;41357;52.806;18.268;2023-05-23T07:33:17;3.55;;;2.45;;
55497;SDS011;41357;52.806;18.268;2023-05-23T07:35:43;3.67;;;2.30;;
55497;SDS011;41357;52.806;18.268;2023-05-23T07:38:09;4.75;;;2.45;;
55497;SDS011;41357;52.806;18.268;2023-05-23T07:40:36;6.90;;;2.50;;
55497;SDS011;41357;52.806;18.268;2023-05-23T07:43:04;6.75;;;2.53;;
55497;SDS011;41357;52.806;18.268;2023-05-23T07:45:30;4.82;;;1.90;;
55497;SDS011;41357;52.806;18.268;2023-05-23T07:47:56;5.43;;;2.17;;
55497;SDS011;41357;52.806;18.268;2023-05-23T07:50:22;3.30;;;2.25;;
55497;SDS011;41357;52.806;18.268;2023-05-23T07:52:51;2.78;;;2.10;;
55497;SDS011;41357;52.806;18.268;2023-05-23T07:55:17;2.92;;;2.03;;
55497;SDS011;41357;52.806;18.268;2023-05-23T07:57:44;3.65;;;2.25;;
55497;SDS011;41357;52.806;18.268;2023-05-23T08:00:10;9.57;;;2.10;;
55497;SDS011;41357;52.806;18.268;2023-05-23T08:02:36;3.67;;;2.15;;
55497;SDS011;41357;52.806;18.268;2023-05-23T08:05:02;5.00;;;2.08;;
55497;SDS011;41357;52.806;18.268;2023-05-23T08:07:28;3.63;;;2.10;;
55497;SDS011;41357;52.806;18.268;2023-05-23T08:09:55;3.88;;;2.20;;
55497;SDS011;41357;52.806;18.268;2023-05-23T08:12:21;4.65;;;1.80;;
55497;SDS011;41357;52.806;18.268;2023-05-23T08:14:47;5.15;;;2.58;;
55497;SDS011;41357;52.806;18.268;2023-05-23T08:17:13;7.25;;;2.50;;
55497;SDS011;41357;52.806;18.268;2023-05-23T08:19:39;7.25;;;2.35;;
55497;SDS011;41357;52.806;18.268;2023-05-23T08:22:06;3.85;;;2.10;;
55497;SDS011;41357;52.806;18.268;2023-05-23T08:24:32;9.23;;;2.78;;
55497;SDS011;41357;52.806;18.268;2023-05-23T08:26:58;3.60;;;2.45;;
55497;SDS011;41357;52.806;18.268;2023-05-23T08:29:24;5.13;;;2.13;;
55497;SDS011;41357;52.806;18.268;2023-05-23T08:31:52;6.45;;;2.35;;
55497;SDS011;41357;52.806;18.268;2023-05-23T08:34:18;3.50;;;2.03;;
55497;SDS011;41357;52.806;18.268;2023-05-23T08:36:44;3.80;;;2.17;;
55497;SDS011;41357;52.806;18.268;2023-05-23T08:39:10;7.78;;;1.95;;
55497;SDS011;41357;52.806;18.268;2023-05-23T08:41:37;7.82;;;2.20;;
55497;SDS011;41357;52.806;18.268;2023-05-23T08:44:04;5.20;;;2.75;;
55497;SDS011;41357;52.806;18.268;2023-05-23T08:46:31;6.45;;;2.50;;
55497;SDS011;41357;52.806;18.268;2023-05-23T08:48:58;5.05;;;2.42;;
55497;SDS011;41357;52.806;18.268;2023-05-23T08:51:25;5.72;;;2.45;;
55497;SDS011;41357;52.806;18.268;2023-05-23T08:53:52;3.75;;;2.13;;
55497;SDS011;41357;52.806;18.268;2023-05-23T08:56:20;4.10;;;2.58;;
55497;SDS011;41357;52.806;18.268;2023-05-23T08:58:46;3.95;;;1.98;;
55497;SDS011;41357;52.806;18.268;2023-05-23T09:01:13;4.22;;;2.72;;
55497;SDS011;41357;52.806;18.268;2023-05-23T09:03:41;6.47;;;2.45;;
55497;SDS011;41357;52.806;18.268;2023-05-23T09:06:08;5.47;;;2.10;;
55497;SDS011;41357;52.806;18.268;2023-05-23T09:08:35;6.97;;;2.80;;
55497;SDS011;41357;52.806;18.268;2023-05-23T09:11:02;8.10;;;2.20;;
55497;SDS011;41357;52.806;18.268;2023-05-23T09:13:29;3.45;;;2.42;;
55497;SDS011;41357;52.806;18.268;2023-05-23T09:18:33;4.90;;;2.53;;
55497;SDS011;41357;52.806;18.268;2023-05-23T09:21:01;7.18;;;2.13;;
55497;SDS011;41357;52.806;18.268;2023-05-23T09:23:30;3.63;;;2.30;;
55497;SDS011;41357;52.806;18.268;2023-05-23T09:26:00;5.55;;;2.05;;
55497;SDS011;41357;52.806;18.268;2023-05-23T09:28:26;3.38;;;2.67;;
55497;SDS011;41357;52.806;18.268;2023-05-23T09:31:05;7.97;;;2.40;;
55497;SDS011;41357;52.806;18.268;2023-05-23T09:33:37;5.03;;;2.23;;
55497;SDS011;41357;52.806;18.268;2023-05-23T09:36:04;3.00;;;2.30;;
55497;SDS011;41357;52.806;18.268;2023-05-23T09:38:30;4.65;;;2.22;;
55497;SDS011;41357;52.806;18.268;2023-05-23T09:40:57;6.22;;;1.90;;
55497;SDS011;41357;52.806;18.268;2023-05-23T09:43:23;4.10;;;1.95;;
55497;SDS011;41357;52.806;18.268;2023-05-23T09:45:51;6.20;;;2.25;;
55497;SDS011;41357;52.806;18.268;2023-05-23T09:48:17;4.35;;;2.38;;
55497;SDS011;41357;52.806;18.268;2023-05-23T09:50:44;4.28;;;2.05;;
55497;SDS011;41357;52.806;18.268;2023-05-23T09:53:11;4.95;;;2.45;;
55497;SDS011;41357;52.806;18.268;2023-05-23T09:55:37;5.50;;;2.30;;
55497;SDS011;41357;52.806;18.268;2023-05-23T09:58:04;3.17;;;2.22;;
55497;SDS011;41357;52.806;18.268;2023-05-23T10:00:32;4.53;;;2.30;;
55497;SDS011;41357;52.806;18.268;2023-05-23T10:07:58;3.28;;;2.17;;
55497;SDS011;41357;52.806;18.268;2023-05-23T10:10:27;10.18;;;2.55;;
55497;SDS011;41357;52.806;18.268;2023-05-23T10:12:54;8.45;;;2.30;;
55497;SDS011;41357;52.806;18.268;2023-05-23T10:15:20;8.15;;;2.45;;
55497;SDS011;41357;52.806;18.268;2023-05-23T10:18:01;4.55;;;2.58;;
55497;SDS011;41357;52.806;18.268;2023-05-23T10:20:29;4.07;;;2.30;;
55497;SDS011;41357;52.806;18.268;2023-05-23T10:22:59;3.35;;;2.28;;
55497;SDS011;41357;52.806;18.268;2023-05-23T10:25:26;10.68;;;2.40;;
55497;SDS011;41357;52.806;18.268;2023-05-23T10:27:55;5.55;;;1.98;;
55497;SDS011;41357;52.806;18.268;2023-05-23T10:30:26;8.27;;;2.28;;
55497;SDS011;41357;52.806;18.268;2023-05-23T10:32:52;4.67;;;2.23;;
55497;SDS011;41357;52.806;18.268;2023-05-23T10:45:44;3.28;;;2.30;;
55497;SDS011;41357;52.806;18.268;2023-05-23T10:51:08;4.90;;;2.42;;
55497;SDS011;41357;52.806;18.268;2023-05-23T10:53:35;3.33;;;2.40;;
55497;SDS011;41357;52.806;18.268;2023-05-23T10:56:03;3.88;;;2.47;;
55497;SDS011;41357;52.806;18.268;2023-05-23T10:58:30;3.83;;;2.38;;
55497;SDS011;41357;52.806;18.268;2023-05-23T11:01:00;6.38;;;2.75;;
55497;SDS011;41357;52.806;18.268;2023-05-23T11:03:30;7.07;;;2.50;;
55497;SDS011;41357;52.806;18.268;2023-05-23T11:06:00;4.85;;;2.80;;
55497;SDS011;41357;52.806;18.268;2023-05-23T11:08:26;7.40;;;2.70;;
55497;SDS011;41357;52.806;18.268;2023-05-23T11:13:20;6.60;;;2.20;;
55497;SDS011;41357;52.806;18.268;2023-05-23T11:15:47;5.20;;;2.22;;
55497;SDS011;41357;52.806;18.268;2023-05-23T11:18:20;3.78;;;2.47;;
55497;SDS011;41357;52.806;18.268;2023-05-23T11:20:46;6.68;;;2.67;;
55497;SDS011;41357;52.806;18.268;2023-05-23T11:23:15;6.75;;;2.08;;
55497;SDS011;41357;52.806;18.268;2023-05-23T11:25:41;3.10;;;2.30;;
55497;SDS011;41357;52.806;18.268;2023-05-23T11:28:11;4.80;;;2.40;;
55497;SDS011;41357;52.806;18.268;2023-05-23T11:30:38;5.30;;;2.63;;
55497;SDS011;41357;52.806;18.268;2023-05-23T11:33:08;4.78;;;2.55;;
55497;SDS011;41357;52.806;18.268;2023-05-23T11:35:38;4.22;;;2.13;;
55497;SDS011;41357;52.806;18.268;2023-05-23T11:38:04;2.78;;;2.00;;
55497;SDS011;41357;52.806;18.268;2023-05-23T11:43:01;6.07;;;2.33;;
55497;SDS011;41357;52.806;18.268;2023-05-23T11:45:27;4.88;;;2.85;;
55497;SDS011;41357;52.806;18.268;2023-05-23T11:47:54;5.22;;;2.50;;
55497;SDS011;41357;52.806;18.268;2023-05-23T11:50:21;3.70;;;2.15;;
55497;SDS011;41357;52.806;18.268;2023-05-23T11:52:48;6.43;;;2.30;;
55497;SDS011;41357;52.806;18.268;2023-05-23T11:55:18;5.75;;;3.05;;
55497;SDS011;41357;52.806;18.268;2023-05-23T11:57:45;2.47;;;2.13;;
55497;SDS011;41357;52.806;18.268;2023-05-23T12:00:11;3.25;;;2.28;;
55497;SDS011;41357;52.806;18.268;2023-05-23T12:02:41;4.13;;;2.15;;
55497;SDS011;41357;52.806;18.268;2023-05-23T12:05:08;4.40;;;2.72;;
55497;SDS011;41357;52.806;18.268;2023-05-23T12:07:38;4.65;;;2.47;;
55497;SDS011;41357;52.806;18.268;2023-05-23T12:10:05;7.30;;;2.45;;
55497;SDS011;41357;52.806;18.268;2023-05-23T12:12:31;6.20;;;2.75;;
55497;SDS011;41357;52.806;18.268;2023-05-23T12:14:57;6.72;;;2.30;;
55497;SDS011;41357;52.806;18.268;2023-05-23T12:17:23;3.47;;;1.98;;
55497;SDS011;41357;52.806;18.268;2023-05-23T12:19:51;5.68;;;2.40;;
55497;SDS011;41357;52.806;18.268;2023-05-23T12:22:24;7.53;;;2.33;;
55497;SDS011;41357;52.806;18.268;2023-05-23T12:24:53;3.97;;;2.28;;
55497;SDS011;41357;52.806;18.268;2023-05-23T12:27:25;3.50;;;2.58;;
55497;SDS011;41357;52.806;18.268;2023-05-23T12:29:54;4.03;;;2.60;;
55497;SDS011;41357;52.806;18.268;2023-05-23T12:32:29;3.45;;;2.20;;
55497;SDS011;41357;52.806;18.268;2023-05-23T12:34:55;6.00;;;3.22;;
55497;SDS011;41357;52.806;18.268;2023-05-23T12:37:21;6.13;;;2.67;;
55497;SDS011;41357;52.806;18.268;2023-05-23T12:39:48;4.32;;;2.70;;
55497;SDS011;41357;52.806;18.268;2023-05-23T12:42:14;6.97;;;3.38;;
55497;SDS011;41357;52.806;18.268;2023-05-23T12:44:40;6.18;;;2.60;;
55497;SDS011;41357;52.806;18.268;2023-05-23T12:49:37;7.85;;;2.47;;
55497;SDS011;41357;52.806;18.268;2023-05-23T12:52:03;3.70;;;2.42;;
55497;SDS011;41357;52.806;18.268;2023-05-23T12:54:29;9.48;;;2.83;;
55497;SDS011;41357;52.806;18.268;2023-05-23T12:56:55;6.70;;;3.65;;
55497;SDS011;41357;52.806;18.268;2023-05-23T12:59:21;6.63;;;2.95;;
55497;SDS011;41357;52.806;18.268;2023-05-23T13:01:47;3.33;;;2.25;;
55497;SDS011;41357;52.806;18.268;2023-05-23T13:04:14;2.75;;;1.92;;
55497;SDS011;41357;52.806;18.268;2023-05-23T13:06:40;5.35;;;2.15;;
55497;SDS011;41357;52.806;18.268;2023-05-23T13:09:06;3.78;;;2.20;;
55497;SDS011;41357;52.806;18.268;2023-05-23T13:11:33;3.83;;;2.00;;
55497;SDS011;41357;52.806;18.268;2023-05-23T13:13:59;2.90;;;2.08;;
55497;SDS011;41357;52.806;18.268;2023-05-23T13:16:25;2.95;;;2.30;;
55497;SDS011;41357;52.806;18.268;2023-05-23T13:18:51;8.90;;;1.90;;
55497;SDS011;41357;52.806;18.268;2023-05-23T13:21:17;4.15;;;2.13;;
55497;SDS011;41357;52.806;18.268;2023-05-23T13:23:43;4.57;;;2.67;;
55497;SDS011;41357;52.806;18.268;2023-05-23T13:26:09;3.50;;;2.28;;
55497;SDS011;41357;52.806;18.268;2023-05-23T13:28:36;5.93;;;2.25;;
55497;SDS011;41357;52.806;18.268;2023-05-23T13:31:02;5.15;;;2.00;;
55497;SDS011;41357;52.806;18.268;2023-05-23T13:33:28;5.93;;;2.33;;
55497;SDS011;41357;52.806;18.268;2023-05-23T13:35:54;5.70;;;2.17;;
55497;SDS011;41357;52.806;18.268;2023-05-23T13:38:21;7.60;;;1.90;;
55497;SDS011;41357;52.806;18.268;2023-05-23T13:40:47;4.00;;;1.95;;
55497;SDS011;41357;52.806;18.268;2023-05-23T13:43:16;5.90;;;2.28;;
55497;SDS011;41357;52.806;18.268;2023-05-23T13:45:42;5.35;;;2.28;;
55497;SDS011;41357;52.806;18.268;2023-05-23T13:48:08;2.95;;;1.90;;
55497;SDS011;41357;52.806;18.268;2023-05-23T13:50:34;7.15;;;2.10;;
55497;SDS011;41357;52.806;18.268;2023-05-23T13:53:00;7.65;;;2.20;;
55497;SDS011;41357;52.806;18.268;2023-05-23T13:55:26;10.55;;;2.25;;
55497;SDS011;41357;52.806;18.268;2023-05-23T13:57:53;7.78;;;2.00;;
55497;SDS011;41357;52.806;18.268;2023-05-23T14:00:19;2.80;;;1.92;;
55497;SDS011;41357;52.806;18.268;2023-05-23T14:02:45;5.80;;;2.20;;
55497;SDS011;41357;52.806;18.268;2023-05-23T14:05:11;6.32;;;2.08;;
55497;SDS011;41357;52.806;18.268;2023-05-23T14:07:37;3.75;;;1.90;;
55497;SDS011;41357;52.806;18.268;2023-05-23T14:10:04;7.70;;;2.70;;
55497;SDS011;41357;52.806;18.268;2023-05-23T14:12:31;5.93;;;2.38;;
55497;SDS011;41357;52.806;18.268;2023-05-23T14:14:57;5.40;;;2.00;;
55497;SDS011;41357;52.806;18.268;2023-05-23T14:17:23;5.10;;;2.50;;
55497;SDS011;41357;52.806;18.268;2023-05-23T14:19:49;6.15;;;2.03;;
55497;SDS011;41357;52.806;18.268;2023-05-23T14:22:15;3.03;;;1.95;;
55497;SDS011;41357;52.806;18.268;2023-05-23T14:24:41;3.58;;;1.70;;
55497;SDS011;41357;52.806;18.268;2023-05-23T14:27:07;5.30;;;2.28;;
55497;SDS011;41357;52.806;18.268;2023-05-23T14:29:33;11.63;;;2.10;;
55497;SDS011;41357;52.806;18.268;2023-05-23T14:31:59;3.20;;;2.10;;
55497;SDS011;41357;52.806;18.268;2023-05-23T14:34:27;5.57;;;2.00;;
55497;SDS011;41357;52.806;18.268;2023-05-23T14:36:54;7.10;;;2.40;;
55497;SDS011;41357;52.806;18.268;2023-05-23T14:39:20;4.70;;;2.00;;
55497;SDS011;41357;52.806;18.268;2023-05-23T14:41:46;3.92;;;2.13;;
55497;SDS011;41357;52.806;18.268;2023-05-23T14:44:12;3.58;;;2.40;;
55497;SDS011;41357;52.806;18.268;2023-05-23T14:46:38;7.50;;;2.20;;
55497;SDS011;41357;52.806;18.268;2023-05-23T14:49:06;5.20;;;2.05;;
55497;SDS011;41357;52.806;18.268;2023-05-23T14:51:33;6.75;;;1.90;;
55497;SDS011;41357;52.806;18.268;2023-05-23T14:54:01;4.25;;;2.25;;
55497;SDS011;41357;52.806;18.268;2023-05-23T14:56:27;7.47;;;2.30;;
55497;SDS011;41357;52.806;18.268;2023-05-23T14:58:53;3.90;;;2.15;;
55497;SDS011;41357;52.806;18.268;2023-05-23T15:01:21;4.18;;;2.08;;